Time;durP1;ratioP1;P1;durP2;ratioP2;P2;SDS_P1;SDS_P2;PMS_P1;PMS_P2;Temp;Humidity;BMP_temperature;BMP_pressure;BME280_temperature;BME280_humidity;BME280_pressure;Samples;Min_cycle;Max_cycle;Signal;HPM_P1;HPM_P2
2022/12/10 00:01:22;;;;;;;28.15;16.85;;;;;;;8.21;84.13;98199.63;4469547;32;34198;-77
2022/12/10 00:03:50;;;;;;;27.70;14.85;;;;;;;8.32;84.87;98193.13;4455671;32;33834;-76
2022/12/10 00:06:23;;;;;;;33.85;18.87;;;;;;;8.60;83.30;98186.34;4469636;32;33392;-78
2022/12/10 00:08:51;;;;;;;43.97;22.08;;;;;;;9.26;79.54;98194.50;4459856;32;33691;-76
2022/12/10 00:11:20;;;;;;;43.17;21.58;;;;;;;8.68;81.67;98195.78;4427117;32;32757;-76
2022/12/10 00:13:48;;;;;;;44.47;23.17;;;;;;;8.07;85.37;98196.66;4453803;32;34221;-77
2022/12/10 00:16:17;;;;;;;41.75;20.65;;;;;;;8.21;84.91;98208.53;4440011;32;34530;-77
2022/12/10 00:18:45;;;;;;;34.78;19.00;;;;;;;8.51;83.46;98223.16;4426951;32;33085;-77
2022/12/10 00:21:17;;;;;;;30.58;17.62;;;;;;;8.61;83.16;98216.87;4440053;32;34000;-77
2022/12/10 00:23:45;;;;;;;36.08;18.27;;;;;;;8.69;82.91;98224.44;4454288;32;34668;-76
2022/12/10 00:26:23;;;;;;;32.03;17.62;;;;;;;8.24;84.51;98223.41;4447891;32;33553;-76
2022/12/10 00:28:51;;;;;;;29.08;16.92;;;;;;;8.47;83.72;98230.16;4455610;32;33958;-75
2022/12/10 00:31:25;;;;;;;28.20;16.33;;;;;;;8.01;86.93;98238.25;4469307;32;34051;-78
2022/12/10 00:33:54;;;;;;;23.58;14.15;;;;;;;8.38;84.80;98245.25;4455503;32;34565;-77
2022/12/10 00:36:34;;;;;;;24.90;14.85;;;;;;;8.59;84.09;98235.28;4466552;32;33571;-76
2022/12/10 00:39:03;;;;;;;29.98;16.90;;;;;;;8.66;84.38;98248.50;4436385;32;34457;-76
2022/12/10 00:41:31;;;;;;;29.25;17.25;;;;;;;8.77;84.92;98242.03;4452635;32;34105;-76
2022/12/10 00:43:58;;;;;;;25.33;15.85;;;;;;;8.79;85.27;98237.97;4438621;32;32451;-78
2022/12/10 00:46:26;;;;;;;25.33;14.85;;;;;;;8.91;85.76;98234.94;4463487;32;33510;-78
2022/12/10 00:48:53;;;;;;;19.70;13.45;;;;;;;8.71;86.47;98246.63;4469377;32;33891;-78
2022/12/10 00:51:23;;;;;;;24.70;14.25;;;;;;;8.81;86.54;98248.47;4468001;32;35033;-76
2022/12/10 00:53:52;;;;;;;21.77;13.73;;;;;;;8.58;88.27;98247.19;4442440;32;33970;-76
2022/12/10 00:56:29;;;;;;;21.87;13.52;;;;;;;8.65;87.71;98252.31;4469136;32;34408;-78
2022/12/10 00:58:57;;;;;;;21.87;13.45;;;;;;;8.94;85.66;98257.91;4448178;32;33655;-78
2022/12/10 01:01:24;;;;;;;23.23;13.88;;;;;;;9.03;84.64;98253.59;4469145;32;34307;-77
2022/12/10 01:03:54;;;;;;;23.75;13.85;;;;;;;8.75;85.53;98255.00;4468709;32;34689;-78
2022/12/10 01:06:36;;;;;;;21.58;13.30;;;;;;;8.86;85.63;98262.00;4455699;32;33788;-78
2022/12/10 01:09:06;;;;;;;21.87;13.23;;;;;;;9.03;84.64;98272.53;4468902;32;34670;-77
2022/12/10 01:11:37;;;;;;;20.37;13.07;;;;;;;8.98;84.92;98267.09;4454047;32;33973;-78
2022/12/10 01:14:06;;;;;;;20.45;12.82;;;;;;;8.73;84.94;98266.09;4468644;32;33706;-77
2022/12/10 01:16:34;;;;;;;22.30;13.50;;;;;;;8.93;85.06;98267.12;4448747;32;34299;-77
2022/12/10 01:19:02;;;;;;;18.92;12.40;;;;;;;9.01;83.97;98278.19;4439243;32;34730;-77
2022/12/10 01:21:30;;;;;;;18.62;11.98;;;;;;;8.85;85.29;98276.59;4453084;32;33993;-78
2022/12/10 01:23:58;;;;;;;18.45;11.95;;;;;;;9.02;84.19;98279.81;4436285;32;34661;-78
2022/12/10 01:26:29;;;;;;;18.90;11.93;;;;;;;8.96;84.82;98271.97;4422796;32;33442;-75
2022/12/10 01:28:56;;;;;;;21.65;12.50;;;;;;;8.55;87.09;98261.22;4443661;32;33743;-77
2022/12/10 01:31:27;;;;;;;20.00;11.90;;;;;;;8.67;86.54;98272.59;4453849;32;34296;-78
2022/12/10 01:33:56;;;;;;;16.10;10.65;;;;;;;9.01;84.73;98290.91;4456734;32;33898;-77
2022/12/10 01:36:28;;;;;;;18.73;11.50;;;;;;;9.09;84.33;98265.19;4457382;32;32973;-78
2022/12/10 01:39:00;;;;;;;18.45;11.38;;;;;;;9.09;83.89;98284.91;4459263;32;34127;-78
2022/12/10 01:41:38;;;;;;;19.02;11.35;;;;;;;8.97;84.88;98274.41;4456581;32;35109;-76
2022/12/10 01:44:08;;;;;;;15.07;9.90;;;;;;;9.27;83.63;98269.19;4448506;32;34644;-78
2022/12/10 01:46:41;;;;;;;16.33;9.88;;;;;;;9.15;83.75;98270.28;4457416;32;33456;-78
2022/12/10 01:49:12;;;;;;;15.90;9.57;;;;;;;9.37;82.74;98278.09;4455775;32;33797;-78
2022/12/10 01:51:42;;;;;;;15.68;10.20;;;;;;;9.59;81.45;98285.00;4449593;32;35006;-77
2022/12/10 01:54:14;;;;;;;14.98;9.75;;;;;;;9.79;79.31;98294.94;4458149;32;34823;-77
2022/12/10 01:56:44;;;;;;;16.73;10.38;;;;;;;9.43;81.13;98292.41;4460432;32;34450;-77
2022/12/10 01:59:15;;;;;;;16.70;10.15;;;;;;;9.21;82.17;98298.97;4456130;32;33811;-76
2022/12/10 02:02:01;;;;;;;14.95;10.20;;;;;;;9.51;81.23;98297.25;4453643;32;34996;-77
2022/12/10 02:04:52;;;;;;;15.02;9.23;;;;;;;8.89;84.31;98296.59;4462551;32;33953;-76
2022/12/10 02:07:48;;;;;;;14.02;9.23;;;;;;;8.82;84.29;98301.50;4460982;32;33961;-77
2022/12/10 02:10:30;;;;;;;12.07;7.85;;;;;;;8.45;85.97;98307.22;4467533;32;33985;-77
2022/12/10 02:13:04;;;;;;;11.80;7.70;;;;;;;8.52;85.06;98316.66;4469549;32;34276;-77
2022/12/10 02:15:53;;;;;;;11.23;7.10;;;;;;;8.54;85.17;98316.37;4456301;32;34709;-77
2022/12/10 02:18:31;;;;;;;10.93;6.55;;;;;;;8.29;84.26;98322.56;4470473;32;34107;-77
2022/12/10 02:21:11;;;;;;;10.50;6.68;;;;;;;8.20;86.01;98317.69;4443259;32;34914;-76
2022/12/10 02:23:43;;;;;;;11.32;7.45;;;;;;;8.00;85.54;98312.25;4470413;32;34247;-76
2022/12/10 02:26:20;;;;;;;12.15;7.90;;;;;;;8.31;84.69;98315.00;4470177;32;34093;-77
2022/12/10 02:29:12;;;;;;;11.98;8.25;;;;;;;7.98;86.34;98320.62;4469678;32;34293;-78
2022/12/10 02:31:46;;;;;;;12.60;7.72;;;;;;;8.00;85.60;98310.34;4470627;32;33893;-77
2022/12/10 02:34:15;;;;;;;10.85;7.70;;;;;;;7.46;88.68;98310.75;4442979;32;33999;-78
2022/12/10 02:36:44;;;;;;;11.95;7.57;;;;;;;7.65;87.22;98307.59;4455182;32;34646;-77
2022/12/10 02:39:15;;;;;;;12.48;7.75;;;;;;;7.15;90.00;98302.50;4443371;32;34279;-77
2022/12/10 02:41:47;;;;;;;12.00;8.10;;;;;;;7.19;90.45;98303.63;4453246;32;34858;-77
2022/12/10 02:44:16;;;;;;;11.98;8.02;;;;;;;7.65;87.59;98300.28;4449253;32;33742;-76
2022/12/10 02:46:46;;;;;;;12.68;8.05;;;;;;;7.96;85.73;98295.75;4455985;32;33803;-77
2022/12/10 02:49:14;;;;;;;14.25;8.27;;;;;;;7.79;85.82;98292.50;4456237;32;33549;-77
2022/12/10 02:51:42;;;;;;;13.02;8.18;;;;;;;7.53;87.23;98295.09;4470027;32;33896;-77
2022/12/10 02:54:37;;;;;;;10.50;7.70;;;;;;;7.62;86.32;98298.09;4469335;32;34070;-75
2022/12/10 02:57:15;;;;;;;10.57;7.22;;;;;;;7.87;85.26;98300.06;4464669;32;33952;-78
2022/12/10 03:00:06;;;;;;;11.00;7.25;;;;;;;7.38;86.59;98305.84;4456001;32;34227;-76
2022/12/10 03:02:47;;;;;;;10.93;7.50;;;;;;;7.60;85.72;98301.09;4450158;32;33740;-76
2022/12/10 03:05:22;;;;;;;10.98;7.45;;;;;;;7.80;85.10;98310.31;4456207;32;34096;-76
2022/12/10 03:07:56;;;;;;;11.10;7.00;;;;;;;7.76;85.15;98314.63;4469732;32;34177;-76
2022/12/10 03:10:32;;;;;;;11.70;7.65;;;;;;;7.93;84.07;98319.81;4455967;32;34437;-77
2022/12/10 03:13:04;;;;;;;10.30;7.20;;;;;;;8.08;82.50;98332.50;4452350;32;30928;-77
2022/12/10 03:15:34;;;;;;;13.38;7.43;;;;;;;7.97;82.90;98321.72;4454265;32;33962;-77
2022/12/10 03:18:03;;;;;;;10.70;7.03;;;;;;;8.01;82.13;98328.19;4455785;32;34222;-77
2022/12/10 03:20:33;;;;;;;9.95;6.75;;;;;;;7.54;84.71;98329.13;4456103;32;33646;-77
2022/12/10 03:23:02;;;;;;;10.38;7.07;;;;;;;7.63;83.92;98339.44;4453455;32;33769;-77
2022/12/10 03:25:30;;;;;;;10.05;7.03;;;;;;;7.25;85.82;98333.31;4455688;32;34020;-77
2022/12/10 03:27:59;;;;;;;10.60;7.05;;;;;;;7.55;84.13;98336.12;4450656;32;33979;-75
2022/12/10 03:30:26;;;;;;;9.18;5.93;;;;;;;7.67;82.84;98335.12;4440370;32;33438;-77
2022/12/10 03:32:54;;;;;;;9.02;6.70;;;;;;;7.24;85.43;98332.50;4440500;32;33723;-76
2022/12/10 03:35:23;;;;;;;9.30;6.28;;;;;;;7.67;83.94;98335.12;4440348;32;34308;-76
2022/12/10 03:37:51;;;;;;;8.63;6.05;;;;;;;7.47;83.98;98333.94;4449723;32;34026;-75
2022/12/10 03:40:22;;;;;;;10.13;6.50;;;;;;;6.87;86.37;98333.34;4453169;32;34340;-76
2022/12/10 03:42:49;;;;;;;8.93;6.00;;;;;;;7.52;84.00;98336.69;4452371;32;33979;-77
2022/12/10 03:45:17;;;;;;;8.57;6.05;;;;;;;6.92;87.23;98332.56;4450973;32;34287;-77
2022/12/10 03:47:44;;;;;;;10.30;6.20;;;;;;;6.80;87.33;98342.72;4469881;32;33945;-77
2022/12/10 03:50:12;;;;;;;8.63;6.20;;;;;;;6.74;86.62;98340.00;4455717;32;33562;-78
2022/12/10 03:52:39;;;;;;;10.85;6.90;;;;;;;6.67;88.25;98346.66;4454785;32;34000;-78
2022/12/10 03:55:07;;;;;;;10.40;6.70;;;;;;;6.82;87.27;98348.66;4455907;32;34085;-78
2022/12/10 03:57:35;;;;;;;10.95;6.68;;;;;;;6.71;87.81;98348.59;4469458;32;34763;-78
2022/12/10 04:00:05;;;;;;;11.60;7.35;;;;;;;6.50;89.14;98346.78;4457745;32;33370;-78
2022/12/10 04:02:38;;;;;;;12.35;7.53;;;;;;;6.43;88.83;98341.63;4440868;32;33947;-77
2022/12/10 04:05:07;;;;;;;12.02;7.20;;;;;;;6.33;89.90;98342.38;4453577;32;34279;-77
2022/12/10 04:07:35;;;;;;;10.40;6.80;;;;;;;6.55;88.81;98355.75;4466043;32;33900;-74
2022/12/10 04:10:03;;;;;;;12.10;7.65;;;;;;;7.02;85.97;98356.09;4455692;32;34315;-80
2022/12/10 04:12:30;;;;;;;11.45;7.43;;;;;;;7.34;84.46;98358.69;4455859;32;33076;-80
2022/12/10 04:17:44;;;;;;;11.27;6.97;;;;;;;6.81;85.63;98374.03;4452081;32;34350;-78
2022/12/10 04:28:30;;;;;;;12.68;7.55;;;;;;;6.57;88.01;98379.75;4453116;32;33034;-76
2022/12/10 04:30:57;;;;;;;14.55;8.38;;;;;;;7.11;85.91;98376.13;4468866;32;33414;-80
2022/12/10 04:33:25;;;;;;;14.82;8.60;;;;;;;6.61;88.38;98371.94;4431684;32;33086;-76
2022/12/10 04:35:53;;;;;;;12.57;7.60;;;;;;;6.24;89.64;98364.63;4460469;32;34856;-77
2022/12/10 04:38:20;;;;;;;16.12;8.40;;;;;;;7.35;84.44;98369.25;4455317;32;32651;-76
2022/12/10 04:40:48;;;;;;;14.48;8.55;;;;;;;7.01;85.45;98357.97;4469081;32;34170;-76
2022/12/10 04:43:15;;;;;;;17.00;8.55;;;;;;;7.28;83.75;98365.13;4469373;32;34659;-79
2022/12/10 04:45:43;;;;;;;13.13;7.95;;;;;;;6.46;88.68;98360.00;4469212;32;34195;-77
2022/12/10 04:48:10;;;;;;;16.73;8.95;;;;;;;6.96;85.57;98355.25;4468982;32;33800;-78
2022/12/10 04:50:38;;;;;;;15.80;8.43;;;;;;;6.61;86.33;98359.31;4441731;32;31819;-79
2022/12/10 04:53:05;;;;;;;20.37;8.95;;;;;;;6.97;85.55;98362.25;4468977;32;34575;-78
2022/12/10 04:55:32;;;;;;;17.05;9.90;;;;;;;6.47;88.31;98356.22;4468930;32;34275;-77
2022/12/10 04:58:00;;;;;;;17.73;9.55;;;;;;;6.56;87.15;98356.56;4466086;32;34693;-78
2022/12/10 05:00:28;;;;;;;18.45;10.32;;;;;;;6.41;87.41;98345.66;4469057;32;33465;-76
2022/12/10 05:02:55;;;;;;;17.87;10.50;;;;;;;6.56;87.89;98345.78;4454969;32;33910;-77
2022/12/10 05:05:23;;;;;;;19.30;9.60;;;;;;;6.53;87.99;98351.69;4452019;32;33882;-77
2022/12/10 05:07:50;;;;;;;14.13;9.23;;;;;;;7.19;84.70;98364.81;4467977;32;34022;-81
2022/12/10 05:10:18;;;;;;;15.15;8.82;;;;;;;7.27;82.82;98371.63;4462295;32;33478;-82
2022/12/10 05:12:45;;;;;;;15.80;8.35;;;;;;;6.40;88.60;98374.47;4468313;32;34180;-77
2022/12/10 05:15:13;;;;;;;16.77;8.95;;;;;;;6.35;87.99;98371.75;4468875;32;33984;-77
2022/12/10 05:17:40;;;;;;;13.40;8.82;;;;;;;6.01;91.20;98382.69;4468765;32;34277;-80
2022/12/10 05:20:08;;;;;;;16.48;8.35;;;;;;;6.33;88.71;98380.06;4454635;32;33802;-75
2022/12/10 05:25:23;;;;;;;13.80;8.15;;;;;;;6.85;85.40;98396.69;4456954;32;33957;-78
2022/12/10 05:27:50;;;;;;;12.32;7.70;;;;;;;6.83;85.56;98399.66;4451434;32;34630;-76
2022/12/10 05:30:18;;;;;;;12.30;7.53;;;;;;;6.78;85.38;98404.97;4453528;32;33292;-78
2022/12/10 05:32:46;;;;;;;11.25;7.65;;;;;;;6.97;84.28;98400.00;4455055;32;33655;-78
2022/12/10 05:35:13;;;;;;;12.68;7.60;;;;;;;6.73;86.58;98403.06;4454597;32;33969;-77
2022/12/10 05:37:41;;;;;;;13.85;7.80;;;;;;;6.86;85.17;98403.69;4451389;32;34365;-79
2022/12/10 05:40:09;;;;;;;11.65;7.68;;;;;;;7.48;81.75;98407.63;4453532;32;33566;-79
2022/12/10 05:42:37;;;;;;;12.77;8.10;;;;;;;7.19;82.57;98410.69;4453989;32;33888;-74
2022/12/10 05:45:04;;;;;;;14.98;8.45;;;;;;;6.80;83.24;98419.00;4454607;32;33945;-78
2022/12/10 05:47:32;;;;;;;15.65;9.30;;;;;;;6.27;87.89;98418.78;4455034;32;34006;-79
2022/12/10 05:49:59;;;;;;;13.60;8.18;;;;;;;6.27;87.72;98405.31;4440573;32;34097;-77
2022/12/10 05:52:27;;;;;;;12.63;8.18;;;;;;;7.02;83.87;98418.09;4455313;32;33870;-80
2022/12/10 05:54:54;;;;;;;14.07;8.48;;;;;;;6.93;83.57;98415.91;4453669;32;34485;-77
2022/12/10 05:57:22;;;;;;;15.13;9.05;;;;;;;6.59;85.30;98399.19;4454719;32;33653;-78
2022/12/10 05:59:49;;;;;;;14.73;8.85;;;;;;;6.34;87.85;98392.47;4452732;32;33024;-77
2022/12/10 06:02:17;;;;;;;16.35;10.13;;;;;;;6.38;85.84;98398.16;4454408;32;33931;-78
2022/12/10 06:04:44;;;;;;;17.45;10.80;;;;;;;6.64;85.12;98415.37;4470080;32;34132;-78
2022/12/10 06:07:12;;;;;;;17.35;10.73;;;;;;;6.66;84.22;98412.44;4452078;32;33972;-81
2022/12/10 06:09:39;;;;;;;16.95;11.02;;;;;;;6.89;83.71;98422.87;4453841;32;34692;-77
2022/12/10 06:12:07;;;;;;;19.00;10.70;;;;;;;6.53;84.54;98413.66;4455647;32;34681;-77
2022/12/10 06:14:34;;;;;;;19.12;10.68;;;;;;;6.93;83.55;98421.31;4454465;32;35128;-79
2022/12/10 06:17:02;;;;;;;19.30;11.65;;;;;;;6.70;84.07;98429.72;4453293;32;33898;-79
2022/12/10 06:19:29;;;;;;;19.45;11.65;;;;;;;6.52;84.62;98429.03;4454158;32;33612;-76
2022/12/10 06:21:58;;;;;;;17.52;11.73;;;;;;;6.11;86.27;98430.44;4440592;32;32481;-80
2022/12/10 06:24:25;;;;;;;18.92;11.55;;;;;;;6.36;85.70;98438.00;4460102;32;33964;-74
2022/12/10 06:26:53;;;;;;;22.50;13.55;;;;;;;6.60;83.92;98437.72;4453563;32;31193;-75
2022/12/10 06:29:22;;;;;;;20.70;12.98;;;;;;;5.55;88.89;98442.12;4469668;32;34446;-75
2022/12/10 06:31:50;;;;;;;22.48;13.62;;;;;;;6.04;86.92;98441.41;4443251;32;31772;-77
2022/12/10 06:34:17;;;;;;;19.52;12.37;;;;;;;5.83;88.84;98444.91;4469655;32;34160;-79
2022/12/10 06:36:45;;;;;;;22.17;13.52;;;;;;;5.85;86.69;98443.59;4469397;32;34367;-79
2022/12/10 06:39:12;;;;;;;22.15;14.10;;;;;;;6.03;86.18;98447.88;4452043;32;33557;-81
2022/12/10 06:41:43;;;;;;;21.45;12.88;;;;;;;6.08;86.37;98447.13;4449414;32;33898;-85
2022/12/10 06:44:11;;;;;;;23.20;12.68;;;;;;;6.28;84.87;98449.22;4439302;32;34947;-79
2022/12/10 06:46:39;;;;;;;20.67;12.88;;;;;;;5.88;85.15;98466.50;4451589;32;34762;-76
2022/12/10 06:49:07;;;;;;;20.67;12.37;;;;;;;6.34;84.30;98469.78;4464957;32;33202;-76
2022/12/10 06:51:35;;;;;;;20.83;13.40;;;;;;;6.21;84.32;98467.47;4453418;32;33822;-76
2022/12/10 06:54:02;;;;;;;23.48;14.40;;;;;;;5.98;85.37;98465.84;4466905;32;35090;-74
2022/12/10 06:56:30;;;;;;;22.15;14.10;;;;;;;6.43;82.63;98467.44;4445895;32;34170;-75
2022/12/10 06:58:58;;;;;;;21.12;13.80;;;;;;;6.17;83.60;98461.75;4466067;32;33499;-75
2022/12/10 07:01:28;;;;;;;24.55;13.93;;;;;;;6.12;84.25;98448.25;4440371;32;34108;-77
2022/12/10 07:03:56;;;;;;;22.75;13.80;;;;;;;6.25;83.58;98445.16;4457301;32;34751;-75
2022/12/10 07:06:25;;;;;;;23.45;15.07;;;;;;;5.13;87.68;98439.09;4468475;32;34719;-78
2022/12/10 07:08:52;;;;;;;21.50;13.90;;;;;;;5.75;86.59;98449.66;4452207;32;33229;-74
2022/12/10 07:11:22;;;;;;;22.45;14.20;;;;;;;5.61;85.85;98448.38;4440884;32;34443;-74
2022/12/10 07:13:50;;;;;;;24.08;14.77;;;;;;;5.30;88.01;98455.22;4451588;32;34005;-76
2022/12/10 07:16:22;;;;;;;24.92;15.68;;;;;;;5.07;89.46;98450.81;4466677;32;35217;-77
2022/12/10 07:18:51;;;;;;;24.55;14.87;;;;;;;5.38;88.36;98456.66;4447542;32;33545;-76
2022/12/10 07:21:24;;;;;;;26.98;16.00;;;;;;;5.31;88.42;98435.31;4445242;32;34361;-74
2022/12/10 07:23:57;;;;;;;25.23;15.65;;;;;;;5.39;88.41;98440.28;4465712;32;34281;-75
2022/12/10 07:26:26;;;;;;;27.13;15.82;;;;;;;5.66;86.74;98435.00;4455049;32;33718;-76
2022/12/10 07:28:53;;;;;;;24.10;15.60;;;;;;;5.27;88.37;98428.78;4447737;32;34361;-74
2022/12/10 07:31:21;;;;;;;24.80;15.35;;;;;;;5.26;88.42;98419.12;4464427;32;33751;-75
2022/12/10 07:33:50;;;;;;;24.27;15.70;;;;;;;5.24;88.27;98413.16;4454537;32;34321;-75
2022/12/10 07:36:19;;;;;;;24.87;15.40;;;;;;;4.79;90.21;98414.91;4468559;32;33525;-76
2022/12/10 07:38:47;;;;;;;28.62;17.33;;;;;;;4.45;92.37;98412.19;4454048;32;34161;-76
2022/12/10 07:41:15;;;;;;;25.95;16.98;;;;;;;4.87;91.20;98421.75;4443846;32;34667;-75
2022/12/10 07:43:44;;;;;;;27.40;17.05;;;;;;;5.34;87.74;98430.25;4454788;32;33799;-77
2022/12/10 07:46:15;;;;;;;25.92;16.37;;;;;;;5.73;85.31;98443.72;4467445;32;34108;-75
2022/12/10 07:48:44;;;;;;;25.60;16.23;;;;;;;5.41;85.08;98451.59;4429867;32;33821;-75
2022/12/10 07:51:12;;;;;;;24.58;15.57;;;;;;;5.71;84.83;98458.47;4443581;32;33874;-76
2022/12/10 07:53:39;;;;;;;21.30;13.27;;;;;;;4.92;88.00;98467.50;4439926;32;34181;-75
2022/12/10 07:56:07;;;;;;;20.27;12.25;;;;;;;4.75;89.27;98466.69;4440143;32;33765;-75
2022/12/10 07:58:35;;;;;;;20.92;13.50;;;;;;;4.94;87.56;98463.50;4441197;32;33571;-76
2022/12/10 08:01:07;;;;;;;19.80;12.40;;;;;;;5.37;86.73;98466.59;4469959;32;34087;-74
2022/12/10 08:03:35;;;;;;;22.65;13.52;;;;;;;5.72;84.08;98469.00;4469301;32;34227;-75
2022/12/10 08:06:08;;;;;;;21.40;13.18;;;;;;;5.40;85.25;98452.69;4451807;32;34849;-76
2022/12/10 08:08:37;;;;;;;21.10;13.70;;;;;;;6.09;82.43;98456.81;4439861;32;34352;-76
2022/12/10 08:11:05;;;;;;;21.05;13.50;;;;;;;5.69;82.96;98460.59;4453405;32;34868;-78
2022/12/10 08:13:33;;;;;;;19.92;12.80;;;;;;;5.81;83.37;98465.84;4456045;32;34346;-78
2022/12/10 08:16:06;;;;;;;21.35;13.38;;;;;;;5.78;82.95;98463.69;4453528;32;34758;-78
2022/12/10 08:18:34;;;;;;;20.25;12.57;;;;;;;5.79;82.50;98441.06;4466210;32;33631;-78
2022/12/10 08:21:23;;;;;;;20.83;13.05;;;;;;;5.97;82.28;98435.41;4451642;32;34703;-78
2022/12/10 08:23:50;;;;;;;20.27;13.25;;;;;;;6.39;80.53;98450.97;4466459;32;34306;-76
2022/12/10 08:26:20;;;;;;;19.37;12.32;;;;;;;6.10;81.07;98439.63;4462882;32;33906;-78
2022/12/10 08:28:49;;;;;;;19.95;13.60;;;;;;;5.47;83.77;98441.75;4436971;32;32726;-77
2022/12/10 08:31:18;;;;;;;21.35;13.68;;;;;;;5.87;83.20;98436.06;4454615;32;35150;-78
2022/12/10 08:33:46;;;;;;;20.92;13.40;;;;;;;6.25;81.83;98442.47;4450816;32;34260;-77
2022/12/10 08:36:15;;;;;;;23.80;14.85;;;;;;;6.44;81.62;98439.44;4469129;32;34255;-78
2022/12/10 08:38:43;;;;;;;20.75;13.02;;;;;;;6.68;79.71;98446.16;4467522;32;34563;-78
2022/12/10 08:41:11;;;;;;;21.05;14.50;;;;;;;6.39;80.75;98448.25;4460808;32;35004;-77
2022/12/10 08:43:39;;;;;;;23.83;16.00;;;;;;;6.03;82.49;98450.56;4454558;32;34268;-79
2022/12/10 08:46:07;;;;;;;21.73;14.45;;;;;;;6.24;81.67;98459.72;4468904;32;34539;-78
2022/12/10 08:48:36;;;;;;;20.48;13.40;;;;;;;6.04;81.96;98459.47;4450906;32;34053;-78
2022/12/10 08:51:04;;;;;;;21.05;14.18;;;;;;;6.44;80.94;98461.81;4467363;32;33802;-76
2022/12/10 08:53:32;;;;;;;22.33;14.32;;;;;;;5.55;84.28;98466.34;4468538;32;34311;-80
2022/12/10 08:56:00;;;;;;;26.65;16.30;;;;;;;5.76;83.49;98466.63;4450625;32;34373;-78
2022/12/10 08:58:32;;;;;;;26.20;16.87;;;;;;;6.55;79.38;98470.81;4458269;32;34450;-77
2022/12/10 09:01:05;;;;;;;31.33;18.77;;;;;;;6.37;77.85;98480.88;4444203;32;34790;-80
2022/12/10 09:03:33;;;;;;;33.55;19.02;;;;;;;6.55;78.41;98489.69;4454131;32;34876;-78
2022/12/10 09:06:03;;;;;;;32.40;19.95;;;;;;;6.58;78.26;98478.38;4470442;32;34106;-80
2022/12/10 09:08:30;;;;;;;32.90;19.45;;;;;;;6.45;78.34;98492.25;4455569;32;33653;-78
2022/12/10 09:10:58;;;;;;;36.58;19.80;;;;;;;6.25;77.80;98487.47;4470367;32;34499;-79
2022/12/10 09:13:26;;;;;;;32.97;19.00;;;;;;;6.43;77.34;98489.00;4454028;32;34209;-79
2022/12/10 09:15:53;;;;;;;34.50;20.08;;;;;;;6.77;75.89;98474.25;4468153;32;33374;-80
2022/12/10 09:18:21;;;;;;;34.22;20.15;;;;;;;6.60;77.32;98487.03;4469691;32;33472;-74
2022/12/10 09:20:48;;;;;;;33.58;20.33;;;;;;;5.97;80.69;98486.56;4465189;32;34887;-74
2022/12/10 09:23:16;;;;;;;35.00;20.80;;;;;;;6.42;78.12;98474.72;4447370;32;33323;-74
2022/12/10 09:25:43;;;;;;;35.45;21.65;;;;;;;6.08;80.26;98465.97;4456535;32;32647;-76
2022/12/10 09:28:11;;;;;;;37.38;21.77;;;;;;;6.10;80.00;98475.44;4446374;32;33375;-77
2022/12/10 09:30:39;;;;;;;34.80;19.85;;;;;;;6.40;79.15;98479.53;4470590;32;34647;-76
2022/12/10 09:33:06;;;;;;;34.40;20.55;;;;;;;6.32;79.25;98479.97;4434142;32;32914;-82
2022/12/10 09:35:34;;;;;;;36.33;20.58;;;;;;;5.89;79.77;98477.00;4463761;32;34012;-79
2022/12/10 09:38:01;;;;;;;38.13;22.02;;;;;;;6.12;79.82;98473.28;4470418;32;33291;-79
2022/12/10 09:40:36;;;;;;;40.47;21.83;;;;;;;5.80;81.85;98473.12;4456336;32;33693;-82
2022/12/10 09:43:13;;;;;;;;;;;;;;;5.54;82.72;98458.50;4456583;32;33809;-79
2022/12/10 09:46:18;;;;;;;40.10;22.08;;;;;;;5.24;83.28;98450.81;4456720;32;34880;-81
2022/12/10 09:49:13;;;;;;;42.35;22.75;;;;;;;5.39;83.55;98440.28;4447186;32;33606;-81
2022/12/10 09:51:41;;;;;;;40.55;21.95;;;;;;;5.65;83.54;98429.88;4463421;32;34536;-76
2022/12/10 09:54:18;;;;;;;41.75;23.42;;;;;;;5.35;83.55;98417.63;4469325;32;35080;-77
2022/12/10 09:56:46;;;;;;;38.38;21.62;;;;;;;5.13;85.46;98413.00;4440523;32;33325;-77
2022/12/10 09:59:24;;;;;;;38.58;21.55;;;;;;;4.99;86.19;98408.22;4442836;32;32443;-77
2022/12/10 10:02:21;;;;;;;42.13;22.87;;;;;;;5.37;85.32;98407.44;4469857;32;33910;-77
2022/12/10 10:04:51;;;;;;;40.28;20.67;;;;;;;5.67;82.88;98407.03;4467112;32;33968;-75
2022/12/10 10:07:24;;;;;;;39.13;23.02;;;;;;;5.80;82.49;98405.03;4443110;32;34604;-77
2022/12/10 10:09:58;;;;;;;38.05;22.42;;;;;;;6.01;81.86;98409.63;4456505;32;33121;-77
2022/12/10 10:12:28;;;;;;;44.63;24.43;;;;;;;4.60;86.09;98406.28;4454290;32;34792;-77
2022/12/10 10:14:56;;;;;;;47.80;26.27;;;;;;;4.89;87.33;98407.00;4453324;32;34754;-80
2022/12/10 10:17:30;;;;;;;46.55;24.70;;;;;;;5.63;83.28;98395.13;4468748;32;34011;-74
2022/12/10 10:20:00;;;;;;;45.58;24.58;;;;;;;5.30;84.55;98399.53;4469593;32;33797;-76
2022/12/10 10:22:27;;;;;;;44.95;23.87;;;;;;;5.75;83.01;98395.84;4466172;32;33729;-74
2022/12/10 10:24:54;;;;;;;41.65;21.60;;;;;;;5.59;83.78;98399.38;4452023;32;34283;-77
2022/12/10 10:27:27;;;;;;;36.85;20.42;;;;;;;5.95;81.98;98410.63;4469729;32;34429;-78
2022/12/10 10:29:56;;;;;;;35.22;19.48;;;;;;;6.20;80.66;98414.66;4470451;32;33593;-76
2022/12/10 10:32:36;;;;;;;35.70;19.85;;;;;;;6.23;80.05;98416.88;4457267;32;33872;-77
2022/12/10 10:35:05;;;;;;;36.95;20.33;;;;;;;6.31;79.03;98421.81;4469720;32;34088;-77
2022/12/10 10:37:35;;;;;;;34.75;20.02;;;;;;;6.27;79.63;98418.00;4455583;32;32921;-77
2022/12/10 10:40:03;;;;;;;32.42;18.17;;;;;;;6.43;79.09;98414.38;4467080;32;33430;-75
2022/12/10 10:42:42;;;;;;;36.15;19.42;;;;;;;6.52;78.99;98412.03;4454300;32;34599;-74
2022/12/10 10:45:31;;;;;;;32.85;18.62;;;;;;;7.00;76.22;98413.00;4466856;32;33742;-74
2022/12/10 10:48:17;;;;;;;31.10;18.52;;;;;;;6.74;77.17;98423.56;4452010;32;33653;-75
2022/12/10 10:50:46;;;;;;;31.37;17.75;;;;;;;6.33;79.31;98422.38;4454314;32;33750;-76
2022/12/10 10:53:29;;;;;;;30.45;17.30;;;;;;;6.13;79.87;98423.78;4454031;32;34695;-75
2022/12/10 10:56:06;;;;;;;28.92;16.67;;;;;;;6.45;78.86;98422.19;4459648;32;34111;-83
2022/12/10 10:58:34;;;;;;;29.20;16.55;;;;;;;5.98;81.49;98412.00;4469276;32;33617;-76
2022/12/10 11:01:07;;;;;;;29.35;16.77;;;;;;;6.51;78.23;98397.75;4455721;32;33900;-74
2022/12/10 11:03:35;;;;;;;31.30;18.20;;;;;;;6.26;78.79;98400.19;4455587;32;35558;-74
2022/12/10 11:06:06;;;;;;;33.22;16.73;;;;;;;6.37;78.83;98396.53;4455638;32;35029;-75
2022/12/10 11:08:35;;;;;;;31.33;17.02;;;;;;;5.98;80.71;98387.78;4443090;32;34891;-82
2022/12/10 11:11:05;;;;;;;29.08;17.00;;;;;;;6.04;79.39;98384.87;4452706;32;33874;-78
2022/12/10 11:13:37;;;;;;;30.40;17.05;;;;;;;6.17;79.79;98391.75;4450000;32;33866;-76
2022/12/10 11:16:23;;;;;;;27.05;15.90;;;;;;;6.05;80.64;98389.22;4434757;32;35391;-78
2022/12/10 11:19:01;;;;;;;27.65;15.90;;;;;;;6.34;79.65;98384.38;4439036;32;33787;-78
2022/12/10 11:21:30;;;;;;;23.45;13.80;;;;;;;6.38;79.17;98382.00;4460175;32;34277;-79
2022/12/10 11:23:59;;;;;;;24.63;14.10;;;;;;;6.17;79.67;98378.28;4450286;32;33767;-78
2022/12/10 11:26:58;;;;;;;29.02;16.30;;;;;;;5.72;81.94;98382.06;4438605;32;33983;-73
2022/12/10 11:29:47;;;;;;;27.35;16.27;;;;;;;6.33;78.68;98366.59;4463647;32;34791;-80
2022/12/10 11:32:33;;;;;;;30.00;15.60;;;;;;;6.12;80.46;98367.47;4455595;32;33552;-76
2022/12/10 11:35:14;;;;;;;29.23;15.48;;;;;;;5.73;81.78;98357.59;4455242;32;34550;-77
2022/12/10 11:38:24;;;;;;;32.72;16.65;;;;;;;5.88;81.96;98351.56;4453433;32;34241;-75
2022/12/10 11:41:11;;;;;;;28.35;16.92;;;;;;;5.22;85.23;98335.44;4390373;32;34718;-75
2022/12/10 11:43:48;;;;;;;36.15;19.27;;;;;;;5.39;84.52;98331.87;4390095;32;33704;-79
2022/12/10 11:46:34;;;;;;;33.60;18.37;;;;;;;5.08;87.02;98337.69;4433314;32;33854;-74
2022/12/10 11:49:13;;;;;;;;;;;;;;;4.85;88.03;98327.13;4454549;32;35093;-74
2022/12/10 11:52:06;;;;;;;37.00;19.75;;;;;;;4.92;88.24;98312.47;4454354;32;34458;-76
2022/12/10 11:54:52;;;;;;;34.88;19.58;;;;;;;4.90;88.08;98313.75;4450840;32;33681;-72
2022/12/10 11:57:44;;;;;;;32.78;18.58;;;;;;;4.58;89.97;98313.53;4454184;32;33501;-78
2022/12/10 12:00:11;;;;;;;32.28;18.17;;;;;;;5.23;87.16;98306.69;4454072;32;35017;-79
2022/12/10 12:03:08;;;;;;;33.67;19.50;;;;;;;5.61;85.90;98304.97;4469733;32;33956;-74